< < Back
Terminal Aerodrome Forecast


Current Version              Previous Versions:   1  2  3  4  5  6  7  8  9  

Terminal Aerodrome Forecast

852
FTUS42 KTAE 241100
TAFTLH
TAF
KTLH 241120Z 2412/2512 00000KT 3SM BR SCT080
      TEMPO 2412/2413 1/4SM FG BKN002
     FM241400 17007KT P6SM SCT040
     FM250800 00000KT 1SM BR BKN005=



Latest METAR

732
SAUS80 KWBC 250700 RRA
MTRTLH
METAR KTLH 250653Z AUTO 25007KT 10SM OVC008 20/17 A2993 RMK AO2 SLP135
T02000172 $


USA.gov is the U.S. government's official web portal to all federal, state and local government web resources and services.